createdAt,value
2023-01-31T00:01:22.432Z,25.95
2023-01-31T00:03:53.340Z,35.28
2023-01-31T00:06:38.506Z,27.25
2023-01-31T00:09:07.056Z,29.83
2023-01-31T00:11:34.058Z,35.20
2023-01-31T00:14:02.107Z,28.23
2023-01-31T00:16:28.919Z,27.63
2023-01-31T00:18:55.357Z,30.05
2023-01-31T00:21:24.873Z,23.23
2023-01-31T00:23:52.775Z,28.63
2023-01-31T00:26:22.755Z,25.25
2023-01-31T00:28:51.009Z,33.92
2023-01-31T00:31:18.621Z,31.88
2023-01-31T00:33:46.849Z,35.47
2023-01-31T00:36:16.596Z,36.00
2023-01-31T00:38:44.769Z,42.55
2023-01-31T00:41:11.981Z,33.03
2023-01-31T00:43:38.695Z,25.70
2023-01-31T00:46:06.294Z,32.75
2023-01-31T00:48:33.363Z,34.75
2023-01-31T00:51:00.016Z,37.47
2023-01-31T00:53:26.645Z,45.45
2023-01-31T00:55:55.171Z,53.83
2023-01-31T00:58:22.361Z,49.67
2023-01-31T01:00:48.896Z,39.53
2023-01-31T01:03:15.588Z,36.60
2023-01-31T01:05:42.058Z,37.72
2023-01-31T01:08:08.552Z,35.58
2023-01-31T01:10:35.533Z,34.97
2023-01-31T01:13:02.326Z,38.38
2023-01-31T01:15:28.885Z,34.60
2023-01-31T01:17:56.429Z,38.80
2023-01-31T01:20:23.594Z,41.20
2023-01-31T01:22:50.081Z,37.38
2023-01-31T01:25:16.498Z,38.40
2023-01-31T01:27:42.884Z,37.00
2023-01-31T01:30:10.059Z,39.40
2023-01-31T01:32:36.673Z,43.05
2023-01-31T01:35:03.896Z,52.45
2023-01-31T01:37:30.385Z,46.05
2023-01-31T01:39:56.919Z,45.30
2023-01-31T01:42:25.328Z,60.65
2023-01-31T01:44:57.897Z,49.45
2023-01-31T01:47:46.693Z,48.05
2023-01-31T01:50:19.452Z,54.00
2023-01-31T01:53:05.631Z,54.13
2023-01-31T01:55:37.161Z,56.22
2023-01-31T01:58:11.967Z,52.95
2023-01-31T02:00:39.325Z,56.80
2023-01-31T02:03:07.980Z,45.65
2023-01-31T02:05:41.121Z,48.15
2023-01-31T02:08:07.769Z,48.38
2023-01-31T02:10:49.729Z,55.83
2023-01-31T02:13:16.524Z,47.95
2023-01-31T02:15:43.074Z,45.50
2023-01-31T02:18:09.906Z,33.72
2023-01-31T02:21:13.591Z,49.75
2023-01-31T02:24:17.587Z,43.20
2023-01-31T02:26:52.990Z,50.17
2023-01-31T02:29:25.608Z,57.25
2023-01-31T02:32:13.951Z,48.90
2023-01-31T02:35:02.426Z,66.25
2023-01-31T02:37:53.336Z,37.65
2023-01-31T02:40:30.789Z,36.97
2023-01-31T02:43:01.378Z,37.28
2023-01-31T02:45:46.230Z,47.92
2023-01-31T02:48:34.572Z,41.83
2023-01-31T02:51:07.116Z,46.33
2023-01-31T02:53:37.179Z,38.50
2023-01-31T02:58:50.353Z,36.08
2023-01-31T03:01:24.594Z,34.65
2023-01-31T03:03:51.994Z,38.33
2023-01-31T03:06:24.491Z,38.97
2023-01-31T03:09:02.724Z,41.10
2023-01-31T03:11:41.113Z,37.88
2023-01-31T03:14:24.875Z,34.20
2023-01-31T03:17:33.187Z,41.35
2023-01-31T03:20:17.769Z,36.67
2023-01-31T03:22:58.939Z,33.40
2023-01-31T03:25:31.135Z,43.58
2023-01-31T03:28:03.422Z,41.42
2023-01-31T03:30:43.189Z,41.75
2023-01-31T03:33:15.890Z,36.70
2023-01-31T03:35:47.586Z,40.97
2023-01-31T03:38:37.566Z,45.35
2023-01-31T03:41:17.370Z,37.05
2023-01-31T03:43:59.379Z,45.13
2023-01-31T03:46:32.976Z,52.20
2023-01-31T03:49:03.040Z,48.45
2023-01-31T03:51:33.624Z,57.63
2023-01-31T03:54:05.082Z,54.28
2023-01-31T03:56:45.761Z,50.75
2023-01-31T03:59:17.555Z,55.78
2023-01-31T04:01:48.868Z,54.83
2023-01-31T04:04:27.398Z,49.60
2023-01-31T04:06:54.152Z,38.08
2023-01-31T04:09:23.042Z,42.53
2023-01-31T04:11:50.598Z,51.35
2023-01-31T04:14:17.735Z,45.25
2023-01-31T04:16:44.963Z,53.92
2023-01-31T04:19:11.890Z,55.05
2023-01-31T04:21:38.440Z,57.03
2023-01-31T04:24:05.591Z,50.67
2023-01-31T04:26:32.523Z,55.75
2023-01-31T04:28:58.978Z,56.80
2023-01-31T04:31:25.591Z,57.17
2023-01-31T04:33:52.083Z,68.80
2023-01-31T04:36:18.514Z,60.83
2023-01-31T04:38:45.007Z,58.13
2023-01-31T04:41:11.445Z,56.78
2023-01-31T04:43:37.921Z,65.95
2023-01-31T04:46:04.557Z,56.75
2023-01-31T04:48:30.990Z,59.53
2023-01-31T04:50:57.374Z,61.28
2023-01-31T04:53:23.766Z,52.88
2023-01-31T04:55:50.163Z,48.38
2023-01-31T04:58:16.749Z,46.20
2023-01-31T05:00:45.059Z,46.95
2023-01-31T05:03:12.418Z,62.53
2023-01-31T05:05:38.922Z,57.65
2023-01-31T05:08:05.742Z,54.40
2023-01-31T05:10:34.129Z,69.93
2023-01-31T05:13:00.655Z,54.90
2023-01-31T05:15:27.169Z,54.55
2023-01-31T05:18:02.869Z,57.10
2023-01-31T05:20:36.530Z,49.35
2023-01-31T05:23:03.092Z,56.85
2023-01-31T05:25:31.501Z,54.50
2023-01-31T05:27:58.110Z,62.83
2023-01-31T05:30:24.914Z,57.15
2023-01-31T05:32:51.945Z,50.10
2023-01-31T05:35:19.401Z,53.78
2023-01-31T05:37:46.264Z,59.10
2023-01-31T05:40:15.187Z,48.70
2023-01-31T05:42:42.059Z,59.28
2023-01-31T05:45:10.385Z,52.13
2023-01-31T05:47:37.427Z,56.38
2023-01-31T05:50:04.676Z,63.90
2023-01-31T05:52:31.086Z,68.80
2023-01-31T05:54:57.554Z,50.30
2023-01-31T05:57:24.056Z,55.92
2023-01-31T05:59:50.587Z,66.07
2023-01-31T06:02:17.149Z,63.58
2023-01-31T06:04:43.538Z,70.43
2023-01-31T06:07:09.948Z,71.03
2023-01-31T06:09:38.704Z,60.38
2023-01-31T06:12:05.533Z,64.53
2023-01-31T06:14:32.469Z,65.25
2023-01-31T06:16:59.169Z,69.25
2023-01-31T06:19:25.947Z,55.63
2023-01-31T06:21:52.465Z,59.97
2023-01-31T06:24:18.865Z,59.25
2023-01-31T06:26:45.406Z,62.80
2023-01-31T06:29:11.983Z,60.28
2023-01-31T06:31:38.554Z,68.22
2023-01-31T06:34:05.061Z,61.45
2023-01-31T06:36:33.985Z,66.93
2023-01-31T06:39:00.518Z,59.58
2023-01-31T06:41:26.996Z,74.82
2023-01-31T06:43:53.498Z,61.97
2023-01-31T06:46:19.953Z,54.75
2023-01-31T06:48:48.297Z,64.93
2023-01-31T06:51:17.863Z,57.28
2023-01-31T06:53:44.277Z,57.22
2023-01-31T06:56:10.947Z,60.22
2023-01-31T06:58:37.382Z,60.13
2023-01-31T07:01:11.714Z,45.33
2023-01-31T07:03:38.653Z,58.00
2023-01-31T07:06:06.172Z,53.03
2023-01-31T07:08:35.327Z,55.00
2023-01-31T07:11:02.897Z,56.20
2023-01-31T07:13:30.236Z,55.83
2023-01-31T07:15:57.377Z,49.20
2023-01-31T07:18:23.895Z,50.85
2023-01-31T07:20:51.200Z,51.25
2023-01-31T07:23:17.796Z,47.28
2023-01-31T07:25:44.241Z,53.03
2023-01-31T07:28:12.034Z,38.42
2023-01-31T07:30:39.919Z,44.15
2023-01-31T07:33:06.519Z,39.67
2023-01-31T07:35:33.393Z,53.92
2023-01-31T07:37:59.993Z,42.72
2023-01-31T07:40:26.415Z,36.03
2023-01-31T07:42:58.001Z,39.53
2023-01-31T07:45:24.443Z,60.63
2023-01-31T07:47:51.644Z,46.80
2023-01-31T07:50:18.404Z,42.85
2023-01-31T07:52:45.138Z,47.65
2023-01-31T07:55:11.622Z,39.25
2023-01-31T07:57:38.035Z,43.22
2023-01-31T08:00:24.888Z,38.53
2023-01-31T08:03:09.729Z,48.63
2023-01-31T08:05:36.131Z,33.88
2023-01-31T08:08:10.514Z,50.97
2023-01-31T08:10:37.424Z,40.15
2023-01-31T08:13:04.389Z,56.92
2023-01-31T08:15:30.797Z,41.22
2023-01-31T08:17:57.232Z,48.35
2023-01-31T08:20:23.715Z,41.58
2023-01-31T08:22:50.154Z,38.17
2023-01-31T08:25:18.928Z,52.65
2023-01-31T08:27:46.607Z,38.65
2023-01-31T08:30:13.779Z,53.42
2023-01-31T08:32:40.238Z,44.75
2023-01-31T08:35:07.598Z,40.05
2023-01-31T08:37:34.627Z,41.47
2023-01-31T08:40:01.082Z,44.15
2023-01-31T08:42:27.487Z,47.00
2023-01-31T08:44:53.919Z,48.45
2023-01-31T08:47:20.320Z,42.90
2023-01-31T08:49:46.720Z,44.25
2023-01-31T08:52:13.175Z,53.88
2023-01-31T08:54:39.562Z,43.55
2023-01-31T08:57:06.090Z,39.92
2023-01-31T08:59:32.769Z,49.80
2023-01-31T09:01:59.205Z,53.13
2023-01-31T09:04:25.637Z,46.83
2023-01-31T09:06:52.147Z,51.60
2023-01-31T09:09:18.596Z,53.70
2023-01-31T09:11:45.178Z,57.60
2023-01-31T09:14:11.562Z,41.45
2023-01-31T09:16:38.293Z,44.20
2023-01-31T09:19:04.823Z,51.33
2023-01-31T09:21:31.485Z,45.70
2023-01-31T09:24:00.085Z,61.30
2023-01-31T09:26:26.618Z,37.28
2023-01-31T09:28:53.178Z,47.03
2023-01-31T09:31:21.129Z,35.55
2023-01-31T09:33:47.894Z,42.35
2023-01-31T09:36:17.346Z,38.67
2023-01-31T09:38:45.099Z,41.08
2023-01-31T09:41:30.899Z,34.97
2023-01-31T09:44:18.573Z,37.70
2023-01-31T09:46:55.530Z,36.88
2023-01-31T09:49:32.223Z,49.05
2023-01-31T09:52:02.133Z,45.75
2023-01-31T09:54:37.651Z,46.30
2023-01-31T09:57:34.927Z,52.67
2023-01-31T10:00:15.246Z,49.33
2023-01-31T10:05:42.097Z,58.17
2023-01-31T10:08:43.510Z,49.50
2023-01-31T10:11:22.619Z,56.40
2023-01-31T10:13:57.652Z,46.88
2023-01-31T10:16:36.535Z,49.97
2023-01-31T10:19:08.813Z,52.22
2023-01-31T10:21:45.889Z,58.22
2023-01-31T10:24:41.229Z,56.22
2023-01-31T10:27:32.016Z,54.35
2023-01-31T10:30:03.062Z,55.30
2023-01-31T10:32:39.299Z,56.65
2023-01-31T10:35:27.127Z,55.97
2023-01-31T10:38:17.832Z,58.03
2023-01-31T10:40:48.619Z,60.85
2023-01-31T10:43:47.768Z,53.13
2023-01-31T10:46:15.311Z,61.00
2023-01-31T10:48:47.198Z,56.10
2023-01-31T10:51:25.573Z,52.22
2023-01-31T10:54:03.982Z,51.63
2023-01-31T10:56:41.908Z,49.28
2023-01-31T10:59:18.801Z,53.45
2023-01-31T11:01:45.499Z,55.42
2023-01-31T11:04:31.860Z,51.22
2023-01-31T11:07:01.066Z,55.63
2023-01-31T11:09:36.759Z,44.80
2023-01-31T11:12:06.932Z,53.72
2023-01-31T11:14:33.697Z,57.97
2023-01-31T11:17:07.144Z,41.50
2023-01-31T11:19:33.577Z,47.03
2023-01-31T11:22:01.086Z,46.05
2023-01-31T11:24:31.114Z,53.85
2023-01-31T11:29:38.104Z,50.80
2023-01-31T11:32:14.323Z,47.63
2023-01-31T11:34:56.041Z,49.97
2023-01-31T11:37:22.534Z,42.67
2023-01-31T11:40:22.763Z,47.70
2023-01-31T11:45:36.019Z,43.10
2023-01-31T11:48:17.515Z,46.90
2023-01-31T11:50:54.053Z,42.75
2023-01-31T11:53:37.421Z,42.20
2023-01-31T11:56:17.282Z,41.10
2023-01-31T11:58:46.806Z,41.35
2023-01-31T12:01:17.365Z,43.50
2023-01-31T12:04:03.668Z,39.90
2023-01-31T12:06:36.549Z,44.28
2023-01-31T12:09:21.712Z,42.97
2023-01-31T12:12:00.566Z,39.13
2023-01-31T12:14:40.084Z,40.42
2023-01-31T12:17:11.143Z,36.80
2023-01-31T12:19:51.628Z,37.92
2023-01-31T12:22:20.797Z,36.05
2023-01-31T12:24:53.427Z,37.60
2023-01-31T12:27:31.451Z,35.90
2023-01-31T12:30:23.866Z,35.45
2023-01-31T12:33:08.904Z,35.35
2023-01-31T12:35:57.255Z,35.20
2023-01-31T12:38:33.202Z,33.83
2023-01-31T12:41:23.552Z,32.33
2023-01-31T12:46:39.491Z,32.72
2023-01-31T12:49:41.136Z,32.42
2023-01-31T12:52:29.245Z,32.17
2023-01-31T12:55:07.860Z,32.30
2023-01-31T12:57:48.371Z,31.58
2023-01-31T13:00:33.311Z,31.85
2023-01-31T13:03:27.458Z,31.33
2023-01-31T13:05:53.825Z,31.33
2023-01-31T13:08:24.784Z,31.92
2023-01-31T13:10:56.033Z,30.75
2023-01-31T13:13:29.887Z,31.45
2023-01-31T13:16:25.538Z,31.95
2023-01-31T13:18:56.233Z,31.90
2023-01-31T13:21:31.367Z,32.30
2023-01-31T13:24:03.093Z,31.27
2023-01-31T13:26:35.168Z,32.65
2023-01-31T13:29:09.549Z,32.55
2023-01-31T13:31:45.730Z,35.42
2023-01-31T13:34:33.272Z,36.85
2023-01-31T13:37:07.356Z,33.60
2023-01-31T13:39:39.364Z,34.13
2023-01-31T13:42:06.503Z,35.42
2023-01-31T13:44:33.595Z,36.65
2023-01-31T13:47:05.794Z,34.53
2023-01-31T13:49:38.551Z,34.55
2023-01-31T13:52:22.951Z,37.47
2023-01-31T13:54:57.675Z,35.03
2023-01-31T13:57:30.051Z,39.72
2023-01-31T14:00:21.315Z,42.45
2023-01-31T14:03:10.704Z,43.22
2023-01-31T14:05:44.576Z,40.55
2023-01-31T14:08:29.632Z,51.78
2023-01-31T14:10:58.203Z,38.83
2023-01-31T14:13:36.820Z,47.85
2023-01-31T14:16:23.604Z,40.22
2023-01-31T14:18:50.122Z,47.25
2023-01-31T14:21:28.766Z,37.58
2023-01-31T14:23:56.641Z,40.65
2023-01-31T14:26:36.346Z,41.42
2023-01-31T14:29:10.371Z,35.92
2023-01-31T14:31:36.951Z,42.50
2023-01-31T14:34:03.779Z,37.17
2023-01-31T14:36:44.059Z,53.90
2023-01-31T14:42:09.906Z,41.95
2023-01-31T14:45:06.710Z,51.65
2023-01-31T14:48:09.900Z,46.58
2023-01-31T14:51:17.159Z,43.00
2023-01-31T14:54:12.645Z,51.97
2023-01-31T14:57:05.504Z,51.20
2023-01-31T14:59:53.328Z,60.63
2023-01-31T15:02:32.318Z,52.05
2023-01-31T15:05:02.320Z,59.17
2023-01-31T15:07:29.261Z,45.88
2023-01-31T15:09:55.948Z,46.70
2023-01-31T15:13:03.543Z,56.08
2023-01-31T15:15:39.914Z,49.70
2023-01-31T15:18:24.253Z,53.30
2023-01-31T15:20:57.336Z,58.70
2023-01-31T15:23:26.967Z,56.53
2023-01-31T15:25:56.345Z,56.65
2023-01-31T15:28:28.334Z,48.53
2023-01-31T15:30:59.019Z,52.42
2023-01-31T15:33:32.659Z,67.10
2023-01-31T15:36:05.215Z,62.47
2023-01-31T15:38:57.418Z,58.65
2023-01-31T15:41:27.163Z,37.20
2023-01-31T15:43:56.666Z,56.20
2023-01-31T15:46:26.922Z,50.50
2023-01-31T15:51:20.680Z,46.60
2023-01-31T15:53:48.159Z,52.65
2023-01-31T15:56:24.934Z,42.67
2023-01-31T15:58:54.853Z,53.25
2023-01-31T16:01:21.707Z,45.47
2023-01-31T16:03:59.239Z,53.55
2023-01-31T16:06:30.173Z,43.88
2023-01-31T16:09:02.055Z,43.95
2023-01-31T16:11:33.489Z,47.85
2023-01-31T16:14:03.689Z,35.60
2023-01-31T16:16:31.238Z,34.42
2023-01-31T16:18:59.824Z,42.88
2023-01-31T16:21:45.429Z,41.60
2023-01-31T16:24:11.811Z,43.17
2023-01-31T16:27:08.377Z,35.97
2023-01-31T16:29:49.234Z,34.65
2023-01-31T16:32:25.273Z,40.42
2023-01-31T16:34:58.227Z,38.28
2023-01-31T16:37:39.564Z,34.25
2023-01-31T16:40:17.784Z,42.70
2023-01-31T16:42:44.523Z,47.72
2023-01-31T16:45:31.787Z,43.40
2023-01-31T16:48:32.560Z,55.58
2023-01-31T16:51:01.335Z,41.25
2023-01-31T16:53:34.229Z,45.95
2023-01-31T16:56:22.175Z,47.85
2023-01-31T16:58:57.075Z,55.80
2023-01-31T17:01:32.473Z,58.78
2023-01-31T17:04:15.370Z,53.40
2023-01-31T17:06:42.597Z,65.45
2023-01-31T17:09:15.064Z,60.25
2023-01-31T17:11:43.828Z,57.65
2023-01-31T17:14:10.598Z,59.38
2023-01-31T17:16:36.996Z,63.55
2023-01-31T17:19:03.567Z,74.30
2023-01-31T17:21:34.850Z,61.78
2023-01-31T17:24:01.569Z,53.30
2023-01-31T17:26:28.010Z,53.85
2023-01-31T17:29:01.542Z,54.67
2023-01-31T17:31:29.647Z,58.22
2023-01-31T17:33:56.781Z,51.20
2023-01-31T17:36:23.673Z,49.20
2023-01-31T17:38:51.872Z,61.53
2023-01-31T17:41:20.494Z,43.53
2023-01-31T17:43:46.881Z,49.10
2023-01-31T17:46:15.389Z,50.92
2023-01-31T17:48:42.143Z,53.95
2023-01-31T17:51:08.895Z,49.50
2023-01-31T17:53:44.119Z,45.60
2023-01-31T17:56:15.568Z,52.47
2023-01-31T17:58:42.041Z,56.70
2023-01-31T18:01:10.631Z,53.03
2023-01-31T18:03:37.224Z,53.88
2023-01-31T18:06:05.418Z,58.70
2023-01-31T18:08:31.950Z,65.65
2023-01-31T18:11:10.598Z,69.50
2023-01-31T18:13:38.112Z,69.88
2023-01-31T18:16:16.715Z,48.83
2023-01-31T18:18:46.485Z,53.30
2023-01-31T18:21:16.144Z,57.78
2023-01-31T18:23:43.190Z,55.83
2023-01-31T18:26:11.422Z,69.72
2023-01-31T18:28:37.938Z,62.10
2023-01-31T18:31:08.004Z,90.93
2023-01-31T18:36:01.110Z,68.47
2023-01-31T18:38:29.127Z,65.57
2023-01-31T18:40:55.881Z,77.97
2023-01-31T18:43:23.060Z,58.60
2023-01-31T18:45:49.758Z,65.43
2023-01-31T18:48:16.212Z,70.45
2023-01-31T18:50:42.649Z,69.28
2023-01-31T18:53:09.039Z,59.47
2023-01-31T18:55:35.532Z,70.25
2023-01-31T18:58:01.951Z,67.60
2023-01-31T19:00:28.456Z,66.75
2023-01-31T19:02:55.451Z,57.45
2023-01-31T19:05:23.614Z,67.57
2023-01-31T19:07:50.157Z,55.22
2023-01-31T19:10:16.971Z,60.28
2023-01-31T19:12:43.372Z,65.38
2023-01-31T19:15:12.412Z,53.45
2023-01-31T19:17:38.834Z,59.00
2023-01-31T19:20:05.922Z,46.15
2023-01-31T19:22:32.361Z,55.17
2023-01-31T19:25:00.897Z,56.97
2023-01-31T19:27:27.413Z,44.58
2023-01-31T19:29:53.803Z,42.50
2023-01-31T19:32:22.375Z,55.97
2023-01-31T19:34:48.889Z,58.50
2023-01-31T19:37:15.467Z,75.03
2023-01-31T19:39:41.937Z,52.10
2023-01-31T19:42:08.630Z,68.78
2023-01-31T19:44:35.036Z,53.83
2023-01-31T19:47:01.435Z,49.20
2023-01-31T19:49:28.043Z,51.65
2023-01-31T19:51:54.479Z,50.80
2023-01-31T19:54:21.008Z,50.50
2023-01-31T19:56:47.439Z,58.63
2023-01-31T19:59:14.031Z,60.42
2023-01-31T20:01:40.493Z,55.10
2023-01-31T20:04:07.175Z,48.70
2023-01-31T20:06:34.227Z,53.33
2023-01-31T20:09:04.631Z,46.08
2023-01-31T20:11:31.535Z,59.10
2023-01-31T20:13:58.284Z,53.78
2023-01-31T20:16:24.876Z,40.83
2023-01-31T20:18:51.514Z,64.68
2023-01-31T20:21:20.009Z,61.08
2023-01-31T20:23:46.928Z,74.30
2023-01-31T20:26:15.294Z,62.20
2023-01-31T20:28:43.382Z,53.08
2023-01-31T20:31:13.152Z,60.80
2023-01-31T20:33:39.636Z,62.92
2023-01-31T20:36:06.528Z,66.05
2023-01-31T20:38:33.114Z,63.95
2023-01-31T20:41:00.337Z,57.13
2023-01-31T20:43:27.461Z,67.00
2023-01-31T20:46:01.545Z,64.28
2023-01-31T20:48:28.046Z,73.68
2023-01-31T20:50:57.832Z,68.30
2023-01-31T20:53:25.019Z,74.53
2023-01-31T20:55:59.527Z,58.65
2023-01-31T20:58:26.935Z,60.17
2023-01-31T21:00:55.393Z,70.18
2023-01-31T21:03:22.444Z,68.45
2023-01-31T21:05:48.944Z,55.67
2023-01-31T21:08:15.534Z,57.83
2023-01-31T21:10:42.027Z,59.00
2023-01-31T21:13:08.986Z,70.70
2023-01-31T21:15:35.393Z,73.22
2023-01-31T21:18:01.828Z,61.72
2023-01-31T21:20:28.217Z,58.60
2023-01-31T21:22:54.629Z,70.25
2023-01-31T21:25:21.101Z,52.45
2023-01-31T21:27:50.071Z,61.83
2023-01-31T21:30:17.373Z,65.55
2023-01-31T21:32:43.963Z,65.75
2023-01-31T21:35:10.714Z,59.75
2023-01-31T21:37:37.281Z,55.30
2023-01-31T21:40:03.815Z,48.95
2023-01-31T21:42:30.255Z,54.83
2023-01-31T21:44:56.627Z,48.13
2023-01-31T21:47:23.159Z,44.50
2023-01-31T21:49:49.617Z,59.50
2023-01-31T21:52:16.038Z,46.97
2023-01-31T21:54:42.478Z,39.42
2023-01-31T21:57:08.895Z,69.50
2023-01-31T21:59:36.365Z,44.50
2023-01-31T22:02:02.793Z,47.00
2023-01-31T22:04:29.269Z,56.58
2023-01-31T22:06:56.104Z,59.90
2023-01-31T22:09:22.600Z,59.33
2023-01-31T22:11:49.873Z,64.10
2023-01-31T22:14:17.058Z,57.92
2023-01-31T22:16:44.094Z,58.75
2023-01-31T22:19:12.665Z,51.83
2023-01-31T22:21:40.524Z,49.65
2023-01-31T22:24:08.742Z,48.78
2023-01-31T22:26:41.392Z,53.90
2023-01-31T22:29:10.893Z,47.47
2023-01-31T22:31:37.908Z,54.35
2023-01-31T22:34:06.367Z,51.92
2023-01-31T22:36:33.723Z,64.65
2023-01-31T22:39:00.408Z,52.83
2023-01-31T22:41:26.947Z,63.85
2023-01-31T22:43:53.995Z,49.13
2023-01-31T22:46:26.076Z,46.65
2023-01-31T22:48:53.648Z,42.92
2023-01-31T22:51:23.146Z,45.25
2023-01-31T22:53:50.370Z,46.25
2023-01-31T22:56:25.762Z,53.97
2023-01-31T22:59:00.213Z,36.20
2023-01-31T23:01:30.101Z,45.38
2023-01-31T23:03:58.529Z,55.83
2023-01-31T23:06:25.975Z,48.22
2023-01-31T23:08:52.918Z,55.70
2023-01-31T23:11:19.787Z,54.03
2023-01-31T23:13:46.820Z,43.05
2023-01-31T23:16:19.704Z,57.50
2023-01-31T23:18:46.813Z,51.53
2023-01-31T23:21:16.283Z,63.33
2023-01-31T23:23:43.335Z,46.05
2023-01-31T23:26:10.411Z,45.10
2023-01-31T23:28:37.325Z,48.53
2023-01-31T23:31:03.891Z,54.92
2023-01-31T23:33:30.327Z,53.55
2023-01-31T23:35:56.748Z,44.40
2023-01-31T23:38:24.093Z,47.53
2023-01-31T23:40:54.364Z,55.65
2023-01-31T23:45:48.230Z,44.30
2023-01-31T23:48:17.625Z,52.03
2023-01-31T23:50:44.091Z,50.23
2023-01-31T23:53:10.518Z,44.17
2023-01-31T23:55:37.283Z,53.00
2023-01-31T23:58:04.076Z,59.30
